Time;durP1;ratioP1;P1;durP2;ratioP2;P2;SDS_P1;SDS_P2;PMS_P1;PMS_P2;Temp;Humidity;BMP_temperature;BMP_pressure;BME280_temperature;BME280_humidity;BME280_pressure;Samples;Min_cycle;Max_cycle;Signal;HPM_P1;HPM_P2
2021/05/04 00:00:38;;;;;;;5.57;5.18;;;;;;;;;;2103131;28;20785;-56
2021/05/04 00:01:38;;;;;;;5.90;5.30;;;;;;;;;;2088606;28;20203;-53
2021/05/04 00:02:39;;;;;;;5.30;4.80;;;;;;;;;;2087129;28;20207;-52
2021/05/04 00:03:39;;;;;;;5.47;5.07;;;;;;;;;;2099756;28;20165;-52
2021/05/04 00:04:39;;;;;;;5.15;4.75;;;;;;;;;;2103291;28;20166;-51
2021/05/04 00:05:40;;;;;;;5.30;4.90;;;;;;;;;;2102386;28;20169;-54
2021/05/04 00:06:41;;;;;;;5.57;4.75;;;;;;;;;;2091750;28;20225;-56
2021/05/04 00:07:41;;;;;;;5.88;5.38;;;;;;;;;;2085988;28;20271;-58
2021/05/04 00:08:41;;;;;;;5.72;4.97;;;;;;;;;;2090560;28;20167;-56
2021/05/04 00:09:42;;;;;;;5.20;4.80;;;;;;;;;;2090875;28;20222;-56
2021/05/04 00:10:42;;;;;;;5.32;4.93;;;;;;;;;;2096030;28;20171;-54
2021/05/04 00:11:42;;;;;;;5.38;4.97;;;;;;;;;;2090707;28;20203;-52
2021/05/04 00:12:42;;;;;;;5.57;5.13;;;;;;;;;;2098792;28;20296;-54
2021/05/04 00:13:43;;;;;;;5.75;5.20;;;;;;;;;;2100182;28;20199;-55
2021/05/04 00:14:43;;;;;;;5.45;5.05;;;;;;;;;;2104320;28;20235;-52
2021/05/04 00:15:43;;;;;;;5.50;5.10;;;;;;;;;;2097753;28;20195;-52
2021/05/04 00:16:44;;;;;;;5.88;5.38;;;;;;;;;;2104473;28;20596;-52
2021/05/04 00:17:44;;;;;;;5.85;5.30;;;;;;;;;;2097867;28;20182;-55
2021/05/04 00:18:44;;;;;;;6.18;5.57;;;;;;;;;;2090966;28;20187;-53
2021/05/04 00:19:44;;;;;;;5.82;5.40;;;;;;;;;;2090872;28;20180;-51
2021/05/04 00:20:45;;;;;;;6.03;5.55;;;;;;;;;;2102608;28;20227;-53
2021/05/04 00:21:45;;;;;;;5.68;5.10;;;;;;;;;;2098459;28;20179;-53
2021/05/04 00:22:45;;;;;;;5.28;4.80;;;;;;;;;;2096390;28;20194;-54
2021/05/04 00:23:46;;;;;;;5.43;5.03;;;;;;;;;;2082134;28;20168;-55
2021/05/04 00:24:46;;;;;;;5.95;5.47;;;;;;;;;;2090033;28;20175;-53
2021/05/04 00:25:46;;;;;;;5.57;5.18;;;;;;;;;;2098238;28;20187;-55
2021/05/04 00:26:46;;;;;;;5.95;5.28;;;;;;;;;;2086567;28;20176;-55
2021/05/04 00:27:47;;;;;;;5.45;4.95;;;;;;;;;;2081928;28;20180;-55
2021/05/04 00:28:47;;;;;;;6.18;5.40;;;;;;;;;;2097290;28;20194;-54
2021/05/04 00:29:47;;;;;;;6.00;5.50;;;;;;;;;;2083067;28;20176;-54
2021/05/04 00:30:48;;;;;;;5.38;4.97;;;;;;;;;;2096572;28;20171;-52
2021/05/04 00:31:48;;;;;;;5.05;4.75;;;;;;;;;;2095085;28;20178;-52
2021/05/04 00:32:48;;;;;;;5.47;5.07;;;;;;;;;;2100750;28;20226;-52
2021/05/04 00:33:49;;;;;;;5.47;5.07;;;;;;;;;;2095548;28;20197;-52
2021/05/04 00:34:49;;;;;;;5.60;5.03;;;;;;;;;;2077683;28;20259;-57
2021/05/04 00:35:50;;;;;;;5.78;5.28;;;;;;;;;;2087911;28;20582;-55
2021/05/04 00:36:50;;;;;;;5.82;5.32;;;;;;;;;;2083360;28;20315;-50
2021/05/04 00:37:50;;;;;;;6.72;5.18;;;;;;;;;;2093909;28;20180;-53
2021/05/04 00:38:51;;;;;;;5.80;4.95;;;;;;;;;;2102738;28;20206;-53
2021/05/04 00:39:51;;;;;;;5.85;5.35;;;;;;;;;;2095338;28;20180;-55
2021/05/04 00:40:52;;;;;;;5.75;5.25;;;;;;;;;;2096725;28;20190;-54
2021/05/04 00:41:52;;;;;;;5.43;4.93;;;;;;;;;;2104639;28;20166;-54
2021/05/04 00:42:52;;;;;;;4.90;4.60;;;;;;;;;;2100272;28;20192;-52
2021/05/04 00:43:53;;;;;;;5.32;4.93;;;;;;;;;;2094115;28;20175;-52
2021/05/04 00:44:53;;;;;;;5.60;5.10;;;;;;;;;;2095939;28;20233;-52
2021/05/04 00:45:54;;;;;;;5.55;5.05;;;;;;;;;;2098483;28;20689;-51
2021/05/04 00:46:54;;;;;;;5.72;5.22;;;;;;;;;;2086805;28;20180;-54
2021/05/04 00:47:54;;;;;;;5.70;5.20;;;;;;;;;;2089364;28;20243;-52
2021/05/04 00:48:55;;;;;;;5.55;5.05;;;;;;;;;;2093970;28;20217;-52
2021/05/04 00:49:55;;;;;;;5.75;5.25;;;;;;;;;;2107047;28;20174;-54
2021/05/04 00:50:57;;;;;;;5.78;5.30;;;;;;;;;;2100521;28;20175;-51
2021/05/04 00:51:58;;;;;;;4.90;4.57;;;;;;;;;;2102661;28;20262;-53
2021/05/04 00:52:58;;;;;;;6.50;5.18;;;;;;;;;;2106372;28;20175;-50
2021/05/04 00:53:59;;;;;;;4.80;4.50;;;;;;;;;;2093155;28;20194;-55
2021/05/04 00:55:00;;;;;;;5.38;4.80;;;;;;;;;;2107071;28;20200;-53
2021/05/04 00:56:01;;;;;;;5.07;4.57;;;;;;;;;;2097938;28;20221;-53
2021/05/04 00:57:01;;;;;;;5.57;5.07;;;;;;;;;;2090452;28;20188;-54
2021/05/04 00:58:02;;;;;;;5.70;4.95;;;;;;;;;;2094221;28;20172;-53
2021/05/04 00:59:02;;;;;;;5.63;5.20;;;;;;;;;;2100666;28;20283;-51
2021/05/04 01:00:04;;;;;;;5.35;4.95;;;;;;;;;;2097437;28;20595;-52
2021/05/04 01:01:04;;;;;;;5.22;4.72;;;;;;;;;;2091575;28;20862;-54
2021/05/04 01:02:05;;;;;;;5.22;4.82;;;;;;;;;;2095047;28;20175;-55
2021/05/04 01:03:06;;;;;;;5.13;4.72;;;;;;;;;;2085660;28;20191;-49
2021/05/04 01:04:07;;;;;;;4.75;4.32;;;;;;;;;;2092777;28;20263;-54
2021/05/04 01:05:08;;;;;;;5.40;4.90;;;;;;;;;;2107699;28;20174;-54
2021/05/04 01:06:08;;;;;;;5.03;4.65;;;;;;;;;;2107379;28;20170;-55
2021/05/04 01:07:08;;;;;;;5.45;5.05;;;;;;;;;;2102012;28;20185;-52
2021/05/04 01:08:09;;;;;;;5.72;5.22;;;;;;;;;;2099087;28;20183;-56
2021/05/04 01:09:09;;;;;;;4.72;4.32;;;;;;;;;;2099103;28;20246;-51
2021/05/04 01:10:09;;;;;;;5.07;4.68;;;;;;;;;;2099421;28;20262;-56
2021/05/04 01:11:10;;;;;;;6.95;4.85;;;;;;;;;;2089631;28;20178;-55
2021/05/04 01:12:10;;;;;;;5.53;4.88;;;;;;;;;;2088101;28;20183;-55
2021/05/04 01:13:10;;;;;;;4.70;4.30;;;;;;;;;;2091367;28;20216;-53
2021/05/04 01:14:11;;;;;;;5.80;4.90;;;;;;;;;;2091411;28;20206;-56
2021/05/04 01:15:11;;;;;;;4.95;4.60;;;;;;;;;;2081881;28;20676;-56
2021/05/04 01:16:12;;;;;;;5.10;4.70;;;;;;;;;;2082179;28;20525;-55
2021/05/04 01:17:12;;;;;;;5.82;4.55;;;;;;;;;;2090656;28;20190;-54
2021/05/04 01:18:12;;;;;;;5.10;4.60;;;;;;;;;;2082053;28;20307;-55
2021/05/04 01:19:12;;;;;;;5.45;4.95;;;;;;;;;;2087346;28;20230;-53
2021/05/04 01:20:13;;;;;;;5.15;4.75;;;;;;;;;;2090180;28;20175;-53
2021/05/04 01:21:13;;;;;;;4.82;4.43;;;;;;;;;;2090229;28;20172;-54
2021/05/04 01:22:14;;;;;;;4.88;4.47;;;;;;;;;;2099094;28;20175;-57
2021/05/04 01:23:14;;;;;;;5.30;4.45;;;;;;;;;;2098674;28;20171;-54
2021/05/04 01:24:15;;;;;;;4.93;4.55;;;;;;;;;;2098792;28;20203;-50
2021/05/04 01:25:16;;;;;;;5.10;4.70;;;;;;;;;;2088751;28;20172;-54
2021/05/04 01:26:16;;;;;;;5.88;4.70;;;;;;;;;;2090168;28;20251;-53
2021/05/04 01:27:16;;;;;;;4.53;4.22;;;;;;;;;;2099300;28;20204;-54
2021/05/04 01:28:17;;;;;;;5.38;4.85;;;;;;;;;;2099188;28;20174;-51
2021/05/04 01:29:17;;;;;;;4.72;4.32;;;;;;;;;;2092429;28;20175;-51
2021/05/04 01:30:18;;;;;;;4.60;4.22;;;;;;;;;;2081893;28;20168;-53
2021/05/04 01:31:18;;;;;;;5.13;4.63;;;;;;;;;;2081976;28;20529;-52
2021/05/04 01:32:18;;;;;;;5.50;4.15;;;;;;;;;;2081932;28;20687;-52
2021/05/04 01:33:18;;;;;;;4.80;4.32;;;;;;;;;;2090423;28;20167;-55
2021/05/04 01:34:19;;;;;;;4.43;4.03;;;;;;;;;;2090447;28;20168;-53
2021/05/04 01:35:20;;;;;;;5.45;4.50;;;;;;;;;;2091158;28;20593;-52
2021/05/04 01:36:20;;;;;;;4.95;4.60;;;;;;;;;;2098800;28;20171;-52
2021/05/04 01:37:20;;;;;;;5.32;3.95;;;;;;;;;;2107037;28;20266;-52
2021/05/04 01:38:20;;;;;;;4.63;3.97;;;;;;;;;;2103024;28;20213;-53
2021/05/04 01:39:27;;;;;;;4.57;4.25;;;;;;;;;;2094079;28;20250;-57
2021/05/04 01:40:28;;;;;;;4.15;3.80;;;;;;;;;;2096598;28;20765;-55
2021/05/04 01:41:28;;;;;;;4.32;4.03;;;;;;;;;;2098848;28;20174;-55
2021/05/04 01:42:28;;;;;;;4.93;4.15;;;;;;;;;;2097941;28;20187;-52
2021/05/04 01:43:28;;;;;;;7.05;3.90;;;;;;;;;;2094895;28;20616;-53
2021/05/04 01:44:29;;;;;;;4.82;4.15;;;;;;;;;;2091302;28;20578;-52
2021/05/04 01:45:29;;;;;;;4.00;3.60;;;;;;;;;;2091352;28;20283;-52
2021/05/04 01:46:32;;;;;;;5.18;3.72;;;;;;;;;;2094893;28;20511;-53
2021/05/04 01:47:32;;;;;;;4.20;3.80;;;;;;;;;;2094269;28;20175;-52
2021/05/04 01:48:32;;;;;;;5.05;3.75;;;;;;;;;;2102806;28;20194;-52
2021/05/04 01:49:33;;;;;;;4.13;3.72;;;;;;;;;;2098889;28;20747;-52
2021/05/04 01:50:33;;;;;;;4.30;3.90;;;;;;;;;;2101090;28;20811;-52
2021/05/04 01:51:35;;;;;;;4.70;3.58;;;;;;;;;;2100687;28;20175;-51
2021/05/04 01:52:35;;;;;;;4.63;3.72;;;;;;;;;;2088155;28;20235;-51
2021/05/04 01:53:35;;;;;;;4.50;3.75;;;;;;;;;;2087035;28;20172;-56
2021/05/04 01:54:36;;;;;;;3.92;3.63;;;;;;;;;;2094417;28;20222;-55
2021/05/04 01:55:36;;;;;;;5.05;3.92;;;;;;;;;;2095526;28;20574;-51
2021/05/04 01:56:36;;;;;;;5.80;3.53;;;;;;;;;;2103754;28;20634;-54
2021/05/04 01:57:37;;;;;;;4.88;3.47;;;;;;;;;;2098116;28;20187;-52
2021/05/04 01:58:38;;;;;;;5.70;3.90;;;;;;;;;;2100543;28;20173;-53
2021/05/04 01:59:38;;;;;;;4.10;3.80;;;;;;;;;;2091378;28;20191;-53
2021/05/04 02:00:38;;;;;;;4.95;4.45;;;;;;;;;;2088324;28;20301;-54
2021/05/04 02:01:39;;;;;;;5.78;3.83;;;;;;;;;;2087732;28;20195;-51
2021/05/04 02:02:39;;;;;;;5.18;4.00;;;;;;;;;;2104277;28;20258;-55
2021/05/04 02:03:40;;;;;;;3.85;3.50;;;;;;;;;;2100132;28;20767;-52
2021/05/04 02:04:40;;;;;;;6.90;4.10;;;;;;;;;;2101892;28;20190;-52
2021/05/04 02:05:40;;;;;;;4.68;4.22;;;;;;;;;;2098546;28;20222;-55
2021/05/04 02:06:40;;;;;;;4.85;3.83;;;;;;;;;;2100413;28;20285;-55
2021/05/04 02:07:41;;;;;;;6.55;3.72;;;;;;;;;;2092173;28;20263;-55
2021/05/04 02:08:41;;;;;;;3.85;3.28;;;;;;;;;;2104795;28;20163;-55
2021/05/04 02:09:42;;;;;;;7.20;3.55;;;;;;;;;;2095762;28;20184;-53
2021/05/04 02:10:42;;;;;;;3.38;3.08;;;;;;;;;;2103508;28;20670;-55
2021/05/04 02:11:42;;;;;;;4.82;3.03;;;;;;;;;;2089003;28;20257;-52
2021/05/04 02:12:43;;;;;;;4.93;3.65;;;;;;;;;;2097122;28;20186;-50
2021/05/04 02:13:43;;;;;;;3.40;3.10;;;;;;;;;;2092967;28;20191;-55
2021/05/04 02:14:43;;;;;;;3.42;3.10;;;;;;;;;;2099165;28;20236;-50
2021/05/04 02:15:44;;;;;;;3.78;3.47;;;;;;;;;;2088326;28;20245;-53
2021/05/04 02:16:44;;;;;;;5.55;3.35;;;;;;;;;;2089438;28;20207;-53
2021/05/04 02:17:44;;;;;;;4.25;3.30;;;;;;;;;;2096258;28;20179;-55
2021/05/04 02:18:44;;;;;;;3.78;3.00;;;;;;;;;;2093610;28;20660;-52
2021/05/04 02:19:45;;;;;;;5.70;3.00;;;;;;;;;;2091285;28;20197;-54
2021/05/04 02:20:45;;;;;;;4.75;2.65;;;;;;;;;;2090774;28;20186;-55
2021/05/04 02:21:45;;;;;;;2.80;2.60;;;;;;;;;;2099303;28;20162;-53
2021/05/04 02:22:46;;;;;;;4.32;2.97;;;;;;;;;;2097485;28;20196;-56
2021/05/04 02:23:47;;;;;;;3.70;2.67;;;;;;;;;;2107500;28;20170;-55
2021/05/04 02:24:48;;;;;;;4.20;3.30;;;;;;;;;;2103132;28;20285;-55
2021/05/04 02:25:50;;;;;;;3.00;2.80;;;;;;;;;;2106898;28;20181;-53
2021/05/04 02:26:50;;;;;;;3.63;3.33;;;;;;;;;;2091203;28;20171;-53
2021/05/04 02:27:51;;;;;;;3.63;2.80;;;;;;;;;;2099837;28;20647;-53
2021/05/04 02:28:51;;;;;;;2.97;2.70;;;;;;;;;;2099993;28;20179;-55
2021/05/04 02:29:51;;;;;;;3.40;3.10;;;;;;;;;;2100962;28;20182;-52
2021/05/04 02:30:51;;;;;;;5.20;2.90;;;;;;;;;;2102405;28;20620;-52
2021/05/04 02:31:52;;;;;;;4.50;2.88;;;;;;;;;;2107259;28;20166;-57
2021/05/04 02:32:52;;;;;;;5.20;3.13;;;;;;;;;;2101560;28;20742;-52
2021/05/04 02:33:52;;;;;;;4.82;2.78;;;;;;;;;;2107206;28;20596;-56
2021/05/04 02:34:53;;;;;;;4.03;3.47;;;;;;;;;;2097765;28;20198;-55
2021/05/04 02:35:53;;;;;;;8.10;3.53;;;;;;;;;;2090755;28;20726;-54
2021/05/04 02:36:53;;;;;;;3.13;2.80;;;;;;;;;;2091371;28;20171;-55
2021/05/04 02:37:53;;;;;;;3.58;3.28;;;;;;;;;;2100165;28;20211;-54
2021/05/04 02:38:54;;;;;;;4.50;3.28;;;;;;;;;;2100155;28;20171;-52
2021/05/04 02:39:54;;;;;;;5.57;3.63;;;;;;;;;;2095032;28;20176;-54
2021/05/04 02:40:54;;;;;;;4.88;3.17;;;;;;;;;;2106710;28;20602;-52
2021/05/04 02:41:55;;;;;;;3.08;2.88;;;;;;;;;;2090840;28;20258;-53
2021/05/04 02:42:55;;;;;;;4.95;3.00;;;;;;;;;;2090360;28;20702;-55
2021/05/04 02:43:55;;;;;;;3.63;3.38;;;;;;;;;;2092491;28;20226;-53
2021/05/04 02:44:56;;;;;;;4.57;2.90;;;;;;;;;;2091790;28;20187;-54
2021/05/04 02:45:56;;;;;;;11.63;3.33;;;;;;;;;;2100498;28;20183;-52
2021/05/04 02:46:57;;;;;;;4.57;2.92;;;;;;;;;;2099669;28;20194;-55
2021/05/04 02:47:57;;;;;;;8.65;3.30;;;;;;;;;;2094256;28;20178;-53
2021/05/04 02:48:58;;;;;;;3.80;3.05;;;;;;;;;;2106713;28;20181;-56
2021/05/04 02:49:58;;;;;;;4.60;3.30;;;;;;;;;;2093309;28;20186;-51
2021/05/04 02:50:59;;;;;;;6.25;3.33;;;;;;;;;;2084397;28;20187;-52
2021/05/04 02:51:59;;;;;;;6.53;3.75;;;;;;;;;;2097975;28;20218;-52
2021/05/04 02:52:59;;;;;;;5.22;3.00;;;;;;;;;;2107008;28;20197;-61
2021/05/04 02:53:59;;;;;;;6.38;3.30;;;;;;;;;;2105405;28;20170;-54
2021/05/04 02:55:00;;;;;;;3.85;3.55;;;;;;;;;;2093163;28;20686;-53
2021/05/04 02:56:00;;;;;;;3.20;2.88;;;;;;;;;;2107140;28;20205;-55
2021/05/04 02:57:00;;;;;;;4.03;3.72;;;;;;;;;;2108350;28;20625;-55
2021/05/04 02:58:01;;;;;;;3.65;3.38;;;;;;;;;;2092011;28;20179;-56
2021/05/04 02:59:01;;;;;;;7.47;4.32;;;;;;;;;;2092579;28;20725;-54
2021/05/04 03:00:02;;;;;;;5.97;3.65;;;;;;;;;;2098713;28;20210;-56
2021/05/04 03:01:05;;;;;;;3.50;3.20;;;;;;;;;;2083284;28;20184;-55
2021/05/04 03:02:05;;;;;;;5.10;4.38;;;;;;;;;;2087121;28;20667;-53
2021/05/04 03:03:05;;;;;;;3.22;2.92;;;;;;;;;;2096650;28;20276;-58
2021/05/04 03:04:05;;;;;;;3.60;3.30;;;;;;;;;;2090097;28;20221;-56
2021/05/04 03:05:06;;;;;;;3.92;3.60;;;;;;;;;;2084268;28;20172;-56
2021/05/04 03:06:07;;;;;;;6.40;4.03;;;;;;;;;;2101911;28;20187;-59
2021/05/04 03:07:07;;;;;;;7.47;4.10;;;;;;;;;;2107486;28;20171;-54
2021/05/04 03:08:08;;;;;;;3.97;3.70;;;;;;;;;;2100796;28;20189;-57
2021/05/04 03:09:08;;;;;;;4.45;4.05;;;;;;;;;;2096481;28;20211;-59
2021/05/04 03:10:08;;;;;;;6.20;4.05;;;;;;;;;;2101109;28;20155;-60
2021/05/04 03:11:09;;;;;;;4.28;3.83;;;;;;;;;;2100706;28;20540;-57
2021/05/04 03:12:09;;;;;;;4.45;3.50;;;;;;;;;;2101169;28;20249;-58
2021/05/04 03:13:09;;;;;;;3.70;3.33;;;;;;;;;;2109910;28;20165;-53
2021/05/04 03:14:10;;;;;;;4.50;3.60;;;;;;;;;;2104683;28;20178;-56
2021/05/04 03:15:11;;;;;;;5.22;3.85;;;;;;;;;;2102900;28;20170;-53
2021/05/04 03:16:11;;;;;;;4.38;3.97;;;;;;;;;;2104324;28;20182;-54
2021/05/04 03:17:11;;;;;;;4.25;3.85;;;;;;;;;;2096017;28;20681;-55
2021/05/04 03:18:12;;;;;;;4.57;4.05;;;;;;;;;;2091817;28;20190;-55
2021/05/04 03:19:12;;;;;;;3.80;3.60;;;;;;;;;;2090024;28;20239;-56
2021/05/04 03:20:12;;;;;;;6.47;4.20;;;;;;;;;;2091419;28;20908;-56
2021/05/04 03:21:13;;;;;;;8.38;3.95;;;;;;;;;;2082777;28;20190;-53
2021/05/04 03:22:13;;;;;;;5.45;3.95;;;;;;;;;;2098028;28;20175;-57
2021/05/04 03:23:14;;;;;;;4.47;3.88;;;;;;;;;;2106400;28;20174;-54
2021/05/04 03:24:14;;;;;;;4.88;4.35;;;;;;;;;;2099805;28;20170;-53
2021/05/04 03:25:14;;;;;;;4.28;3.88;;;;;;;;;;2091529;28;20238;-54
2021/05/04 03:26:15;;;;;;;3.35;3.05;;;;;;;;;;2091980;28;20175;-56
2021/05/04 03:27:15;;;;;;;5.00;4.00;;;;;;;;;;2097929;28;20234;-54
2021/05/04 03:28:16;;;;;;;5.63;4.53;;;;;;;;;;2092960;28;20230;-57
2021/05/04 03:29:17;;;;;;;4.05;3.65;;;;;;;;;;2091196;28;20174;-52
2021/05/04 03:30:17;;;;;;;4.72;4.30;;;;;;;;;;2090063;28;20196;-53
2021/05/04 03:31:17;;;;;;;5.40;4.90;;;;;;;;;;2107128;28;20592;-55
2021/05/04 03:32:18;;;;;;;5.35;4.57;;;;;;;;;;2092216;28;20610;-55
2021/05/04 03:33:18;;;;;;;4.32;4.03;;;;;;;;;;2095886;28;20221;-54
2021/05/04 03:34:18;;;;;;;5.82;5.15;;;;;;;;;;2094230;28;20273;-51
2021/05/04 03:35:19;;;;;;;6.28;5.28;;;;;;;;;;2097408;28;20182;-53
2021/05/04 03:36:19;;;;;;;5.55;5.05;;;;;;;;;;2099305;28;20175;-53
2021/05/04 03:37:19;;;;;;;5.75;5.07;;;;;;;;;;2099697;28;20249;-53
2021/05/04 03:38:20;;;;;;;5.10;4.75;;;;;;;;;;2089394;28;20183;-53
2021/05/04 03:39:20;;;;;;;7.30;5.63;;;;;;;;;;2083558;28;20172;-54
2021/05/04 03:40:20;;;;;;;7.75;5.53;;;;;;;;;;2076614;28;20176;-54
2021/05/04 03:41:20;;;;;;;8.23;5.38;;;;;;;;;;2069974;28;20180;-55
2021/05/04 03:42:21;;;;;;;4.45;4.03;;;;;;;;;;2085018;28;20188;-53
2021/05/04 03:43:21;;;;;;;5.70;4.82;;;;;;;;;;2104121;28;20231;-52
2021/05/04 03:44:21;;;;;;;5.35;4.90;;;;;;;;;;2099813;28;20170;-51
2021/05/04 03:45:22;;;;;;;6.88;5.65;;;;;;;;;;2101181;28;20666;-52
2021/05/04 03:46:22;;;;;;;5.45;4.95;;;;;;;;;;2095195;28;20172;-51
2021/05/04 03:47:22;;;;;;;5.83;5.43;;;;;;;;;;2093525;28;20179;-51
2021/05/04 03:48:22;;;;;;;7.63;6.28;;;;;;;;;;2091512;28;20213;-55
2021/05/04 03:49:23;;;;;;;6.28;5.78;;;;;;;;;;2102359;28;20249;-55
2021/05/04 03:50:25;;;;;;;6.15;5.53;;;;;;;;;;2092549;28;20179;-53
2021/05/04 03:51:25;;;;;;;9.60;5.10;;;;;;;;;;2088895;28;20624;-52
2021/05/04 03:52:25;;;;;;;7.03;5.80;;;;;;;;;;2088507;28;20328;-52
2021/05/04 03:53:25;;;;;;;7.05;4.60;;;;;;;;;;2093849;28;20194;-52
2021/05/04 03:54:26;;;;;;;8.13;6.13;;;;;;;;;;2099137;28;20172;-54
2021/05/04 03:55:26;;;;;;;6.45;5.78;;;;;;;;;;2091577;28;20911;-54
2021/05/04 03:56:27;;;;;;;7.80;6.57;;;;;;;;;;2083243;28;20175;-53
2021/05/04 03:57:27;;;;;;;8.17;5.40;;;;;;;;;;2086119;28;20211;-53
2021/05/04 03:58:27;;;;;;;8.73;5.47;;;;;;;;;;2083865;28;20251;-52
2021/05/04 03:59:28;;;;;;;10.15;5.93;;;;;;;;;;2082272;28;20167;-51
2021/05/04 04:00:28;;;;;;;6.43;5.83;;;;;;;;;;2082191;28;20621;-52
2021/05/04 04:01:30;;;;;;;6.20;5.70;;;;;;;;;;2094476;28;20178;-51
2021/05/04 04:02:30;;;;;;;6.80;6.10;;;;;;;;;;2100670;28;21084;-53
2021/05/04 04:03:30;;;;;;;7.80;6.70;;;;;;;;;;2088397;28;20179;-52
2021/05/04 04:04:30;;;;;;;6.40;5.80;;;;;;;;;;2086338;28;20176;-50
2021/05/04 04:05:31;;;;;;;7.67;5.60;;;;;;;;;;2095863;28;20182;-51
2021/05/04 04:06:31;;;;;;;6.67;6.13;;;;;;;;;;2088447;28;20179;-53
2021/05/04 04:07:32;;;;;;;6.57;6.03;;;;;;;;;;2094777;28;20170;-56
2021/05/04 04:08:32;;;;;;;6.57;5.97;;;;;;;;;;2106096;28;20181;-51
2021/05/04 04:09:33;;;;;;;9.73;6.33;;;;;;;;;;2097988;28;20167;-54
2021/05/04 04:10:33;;;;;;;8.30;6.13;;;;;;;;;;2096872;28;20182;-53
2021/05/04 04:11:33;;;;;;;6.73;6.07;;;;;;;;;;2101993;28;20194;-52
2021/05/04 04:12:34;;;;;;;8.85;6.22;;;;;;;;;;2081980;28;20192;-52
2021/05/04 04:13:34;;;;;;;11.95;6.72;;;;;;;;;;2088240;28;20172;-53
2021/05/04 04:14:35;;;;;;;7.15;5.97;;;;;;;;;;2081562;28;20180;-52
2021/05/04 04:15:35;;;;;;;10.43;5.93;;;;;;;;;;2096648;28;20162;-52
2021/05/04 04:16:35;;;;;;;6.53;6.03;;;;;;;;;;2096914;28;20178;-50
2021/05/04 04:17:36;;;;;;;6.63;6.07;;;;;;;;;;2097869;28;20210;-53
2021/05/04 04:18:36;;;;;;;7.55;6.93;;;;;;;;;;2098835;28;20218;-50
2021/05/04 04:19:36;;;;;;;7.05;6.32;;;;;;;;;;2098506;28;20647;-50
2021/05/04 04:20:36;;;;;;;6.93;6.32;;;;;;;;;;2103460;28;20176;-56
2021/05/04 04:21:37;;;;;;;7.10;6.50;;;;;;;;;;2103951;28;20166;-54
2021/05/04 04:22:38;;;;;;;6.70;6.10;;;;;;;;;;2094619;28;20249;-52
2021/05/04 04:23:38;;;;;;;7.20;6.00;;;;;;;;;;2103907;28;20175;-53
2021/05/04 04:24:39;;;;;;;7.37;6.00;;;;;;;;;;2096397;28;20197;-54
2021/05/04 04:25:39;;;;;;;7.00;6.27;;;;;;;;;;2098185;28;20214;-52
2021/05/04 04:26:39;;;;;;;5.53;5.03;;;;;;;;;;2107544;28;20228;-51
2021/05/04 04:27:39;;;;;;;7.90;5.90;;;;;;;;;;2097122;28;20201;-49
2021/05/04 04:28:40;;;;;;;8.32;5.95;;;;;;;;;;2097365;28;20228;-55
2021/05/04 04:29:40;;;;;;;6.20;5.60;;;;;;;;;;2092926;28;20187;-50
2021/05/04 04:30:40;;;;;;;7.87;5.60;;;;;;;;;;2084331;28;20171;-51
2021/05/04 04:31:41;;;;;;;6.57;5.97;;;;;;;;;;2105906;28;20178;-53
2021/05/04 04:32:43;;;;;;;6.50;5.43;;;;;;;;;;2105455;22;20222;-56
2021/05/04 04:33:43;;;;;;;8.35;6.07;;;;;;;;;;2104135;28;20190;-54
2021/05/04 04:34:43;;;;;;;6.07;5.40;;;;;;;;;;2099815;28;20250;-57
2021/05/04 04:35:43;;;;;;;6.25;5.65;;;;;;;;;;2099622;28;20206;-56
2021/05/04 04:36:44;;;;;;;8.95;5.70;;;;;;;;;;2106099;28;20169;-55
2021/05/04 04:37:44;;;;;;;6.13;5.43;;;;;;;;;;2105764;28;20167;-57
2021/05/04 04:38:44;;;;;;;5.97;5.40;;;;;;;;;;2116371;28;20248;-59
2021/05/04 04:39:44;;;;;;;6.60;5.43;;;;;;;;;;2105902;28;20205;-57
2021/05/04 04:40:45;;;;;;;9.40;5.47;;;;;;;;;;2099464;28;20179;-57
2021/05/04 04:41:46;;;;;;;7.40;5.13;;;;;;;;;;2112835;28;20224;-59
2021/05/04 04:42:46;;;;;;;6.40;5.05;;;;;;;;;;2108155;28;20190;-59
2021/05/04 04:43:46;;;;;;;9.95;5.65;;;;;;;;;;2111017;28;20182;-59
2021/05/04 04:44:46;;;;;;;5.10;4.70;;;;;;;;;;2115861;28;20205;-56
2021/05/04 04:45:47;;;;;;;4.83;4.53;;;;;;;;;;2107159;28;20673;-55
2021/05/04 04:46:47;;;;;;;5.23;4.27;;;;;;;;;;2107035;28;20247;-58
2021/05/04 04:47:48;;;;;;;5.88;5.40;;;;;;;;;;2115908;28;20642;-57
2021/05/04 04:48:48;;;;;;;6.22;5.43;;;;;;;;;;2107435;28;20633;-55
2021/05/04 04:49:49;;;;;;;6.77;4.73;;;;;;;;;;2114870;27;20188;-57
2021/05/04 04:50:49;;;;;;;6.03;5.18;;;;;;;;;;2098247;28;20365;-57
2021/05/04 04:51:49;;;;;;;5.38;4.85;;;;;;;;;;2098527;28;20181;-57
2021/05/04 04:52:50;;;;;;;7.43;4.33;;;;;;;;;;2122073;27;20695;-58
2021/05/04 04:53:51;;;;;;;4.97;4.50;;;;;;;;;;2124432;27;20587;-57
2021/05/04 04:54:52;;;;;;;7.37;5.73;;;;;;;;;;2111506;27;20167;-54
2021/05/04 04:55:52;;;;;;;5.70;5.10;;;;;;;;;;2124608;27;20680;-59
2021/05/04 04:56:52;;;;;;;5.50;5.07;;;;;;;;;;2108507;28;20229;-59
2021/05/04 04:57:53;;;;;;;5.60;5.07;;;;;;;;;;2107581;28;20177;-60
2021/05/04 04:58:53;;;;;;;6.20;5.65;;;;;;;;;;2115282;28;20174;-57
2021/05/04 04:59:54;;;;;;;6.03;4.97;;;;;;;;;;2108695;27;20261;-56
2021/05/04 05:00:54;;;;;;;6.47;5.03;;;;;;;;;;2112970;27;20234;-52
2021/05/04 05:01:55;;;;;;;4.97;4.40;;;;;;;;;;2124367;27;20252;-54
2021/05/04 05:02:55;;;;;;;5.05;4.65;;;;;;;;;;2117739;27;20638;-51
2021/05/04 05:03:55;;;;;;;5.73;4.67;;;;;;;;;;2110164;27;20547;-56
2021/05/04 05:04:55;;;;;;;5.90;4.57;;;;;;;;;;2118481;27;20173;-58
2021/05/04 05:05:56;;;;;;;5.10;4.70;;;;;;;;;;2123896;27;20644;-58
2021/05/04 05:06:56;;;;;;;5.60;5.20;;;;;;;;;;2107593;28;20181;-58
2021/05/04 05:07:56;;;;;;;5.70;5.10;;;;;;;;;;2108461;28;20204;-57
2021/05/04 05:08:56;;;;;;;9.17;5.30;;;;;;;;;;2123010;27;20164;-54
2021/05/04 05:09:57;;;;;;;7.57;5.20;;;;;;;;;;2110661;27;20193;-57
2021/05/04 05:10:57;;;;;;;5.50;5.00;;;;;;;;;;2114087;28;20173;-58
2021/05/04 05:11:57;;;;;;;7.07;5.22;;;;;;;;;;2107227;28;20762;-57
2021/05/04 05:12:58;;;;;;;6.20;4.80;;;;;;;;;;2107531;28;20197;-58
2021/05/04 05:13:59;;;;;;;5.90;4.80;;;;;;;;;;2098516;28;20232;-59
2021/05/04 05:15:01;;;;;;;5.00;4.60;;;;;;;;;;2108365;28;20230;-57
2021/05/04 05:16:02;;;;;;;5.72;4.80;;;;;;;;;;2113993;28;20217;-57
2021/05/04 05:17:02;;;;;;;7.03;4.70;;;;;;;;;;2107448;28;20166;-59
2021/05/04 05:18:05;;;;;;;5.53;4.90;;;;;;;;;;2106733;28;20234;-54
2021/05/04 05:19:06;;;;;;;6.10;5.57;;;;;;;;;;2102829;28;20179;-56
2021/05/04 05:20:06;;;;;;;5.28;4.78;;;;;;;;;;2109999;28;20178;-57
2021/05/04 05:21:07;;;;;;;5.17;4.77;;;;;;;;;;2110711;28;20190;-57
2021/05/04 05:22:07;;;;;;;5.57;5.17;;;;;;;;;;2115082;28;20166;-59
2021/05/04 05:23:08;;;;;;;5.88;5.38;;;;;;;;;;2115832;28;20228;-55
2021/05/04 05:24:08;;;;;;;6.93;5.00;;;;;;;;;;2103772;28;20171;-55
2021/05/04 05:25:09;;;;;;;5.18;4.80;;;;;;;;;;2112487;28;20348;-58
2021/05/04 05:26:09;;;;;;;5.65;5.25;;;;;;;;;;2122460;27;20169;-55
2021/05/04 05:27:10;;;;;;;5.17;4.77;;;;;;;;;;2115576;27;20629;-61
2021/05/04 05:28:10;;;;;;;5.40;5.00;;;;;;;;;;2122002;27;20248;-55
2021/05/04 05:29:11;;;;;;;5.50;4.95;;;;;;;;;;2119250;27;20279;-56
2021/05/04 05:30:11;;;;;;;5.55;5.15;;;;;;;;;;2117319;27;20189;-54
2021/05/04 05:31:12;;;;;;;6.40;5.28;;;;;;;;;;2113246;28;20209;-57
2021/05/04 05:32:12;;;;;;;7.20;4.78;;;;;;;;;;2107342;28;20175;-54
2021/05/04 05:33:12;;;;;;;6.07;4.88;;;;;;;;;;2113695;27;20699;-56
2021/05/04 05:34:13;;;;;;;5.95;4.90;;;;;;;;;;2121755;27;20181;-59
2021/05/04 05:35:13;;;;;;;5.50;4.93;;;;;;;;;;2119881;27;20160;-55
2021/05/04 05:36:13;;;;;;;6.63;5.15;;;;;;;;;;2110499;28;20185;-57
2021/05/04 05:37:13;;;;;;;5.93;5.43;;;;;;;;;;2112673;28;20171;-60
2021/05/04 05:38:14;;;;;;;7.37;5.77;;;;;;;;;;2118721;27;20173;-60
2021/05/04 05:39:15;;;;;;;5.25;4.75;;;;;;;;;;2113748;28;20180;-59
2021/05/04 05:40:16;;;;;;;5.88;5.38;;;;;;;;;;2110970;28;20170;-56
2021/05/04 05:41:16;;;;;;;5.28;4.85;;;;;;;;;;2102438;28;20372;-57
2021/05/04 05:42:18;;;;;;;7.40;5.25;;;;;;;;;;2099977;28;20181;-53
2021/05/04 05:43:18;;;;;;;6.10;5.57;;;;;;;;;;2099399;28;20191;-56
2021/05/04 05:44:18;;;;;;;6.23;5.73;;;;;;;;;;2100514;28;20815;-55
2021/05/04 05:45:19;;;;;;;5.82;5.40;;;;;;;;;;2111302;28;20260;-54
2021/05/04 05:46:19;;;;;;;6.05;5.55;;;;;;;;;;2102191;28;20289;-54
2021/05/04 05:47:19;;;;;;;7.55;5.65;;;;;;;;;;2106690;28;20170;-58
2021/05/04 05:48:20;;;;;;;6.20;5.70;;;;;;;;;;2105239;28;20174;-57
2021/05/04 05:49:20;;;;;;;6.13;5.63;;;;;;;;;;2106680;28;20604;-56
2021/05/04 05:50:20;;;;;;;6.17;5.67;;;;;;;;;;2116591;27;20177;-58
2021/05/04 05:51:20;;;;;;;6.05;5.55;;;;;;;;;;2110359;28;20197;-57
2021/05/04 05:52:21;;;;;;;6.83;6.20;;;;;;;;;;2106452;28;20219;-57
2021/05/04 05:53:21;;;;;;;6.07;5.57;;;;;;;;;;2102217;28;20319;-55
2021/05/04 05:54:22;;;;;;;6.05;5.43;;;;;;;;;;2103704;28;20166;-56
2021/05/04 05:55:22;;;;;;;5.97;5.53;;;;;;;;;;2109731;28;20180;-57
2021/05/04 05:56:22;;;;;;;6.38;5.70;;;;;;;;;;2101105;28;20171;-57
2021/05/04 05:57:23;;;;;;;5.78;5.38;;;;;;;;;;2104389;28;20622;-57
2021/05/04 05:58:23;;;;;;;6.43;5.90;;;;;;;;;;2098130;28;20171;-57
2021/05/04 05:59:23;;;;;;;6.03;5.53;;;;;;;;;;2104001;28;20211;-58
2021/05/04 06:00:24;;;;;;;6.30;5.72;;;;;;;;;;2115095;27;20695;-55
2021/05/04 06:01:24;;;;;;;7.30;6.27;;;;;;;;;;2112108;28;20204;-55
2021/05/04 06:02:25;;;;;;;5.82;5.43;;;;;;;;;;2106170;28;20171;-55